sensor_id;sensor_type;location;lat;lon;timestamp;temperature;humidity
6822;DHT22;3449;48.728;8.968;2022-07-29T00:00:50;18.70;99.90
6822;DHT22;3449;48.728;8.968;2022-07-29T00:03:17;18.70;99.90
6822;DHT22;3449;48.728;8.968;2022-07-29T00:05:44;18.70;99.90
6822;DHT22;3449;48.728;8.968;2022-07-29T00:08:11;18.70;99.90
6822;DHT22;3449;48.728;8.968;2022-07-29T00:10:38;18.60;99.90
6822;DHT22;3449;48.728;8.968;2022-07-29T00:13:05;18.60;99.90
6822;DHT22;3449;48.728;8.968;2022-07-29T00:15:34;18.50;99.90
6822;DHT22;3449;48.728;8.968;2022-07-29T00:18:01;18.50;99.90
6822;DHT22;3449;48.728;8.968;2022-07-29T00:20:28;18.40;99.90
6822;DHT22;3449;48.728;8.968;2022-07-29T00:22:55;18.40;99.90
6822;DHT22;3449;48.728;8.968;2022-07-29T00:25:22;18.40;99.90
6822;DHT22;3449;48.728;8.968;2022-07-29T00:27:49;18.40;99.90
6822;DHT22;3449;48.728;8.968;2022-07-29T00:30:15;18.40;99.90
6822;DHT22;3449;48.728;8.968;2022-07-29T00:32:44;18.30;99.90
6822;DHT22;3449;48.728;8.968;2022-07-29T00:35:11;18.30;99.90
6822;DHT22;3449;48.728;8.968;2022-07-29T00:37:55;18.30;99.90
6822;DHT22;3449;48.728;8.968;2022-07-29T00:40:22;18.20;99.90
6822;DHT22;3449;48.728;8.968;2022-07-29T00:42:51;18.10;99.90
6822;DHT22;3449;48.728;8.968;2022-07-29T00:45:19;18.10;99.90
6822;DHT22;3449;48.728;8.968;2022-07-29T00:47:48;18.10;99.90
6822;DHT22;3449;48.728;8.968;2022-07-29T00:50:16;18.10;99.90
6822;DHT22;3449;48.728;8.968;2022-07-29T00:52:43;18.10;99.90
6822;DHT22;3449;48.728;8.968;2022-07-29T00:55:12;18.00;99.90
6822;DHT22;3449;48.728;8.968;2022-07-29T00:57:40;18.00;99.90
6822;DHT22;3449;48.728;8.968;2022-07-29T01:00:11;18.00;99.90
6822;DHT22;3449;48.728;8.968;2022-07-29T01:02:38;18.00;99.90
6822;DHT22;3449;48.728;8.968;2022-07-29T01:05:07;18.00;99.90
6822;DHT22;3449;48.728;8.968;2022-07-29T01:07:36;18.00;99.90
6822;DHT22;3449;48.728;8.968;2022-07-29T01:10:05;18.00;99.90
6822;DHT22;3449;48.728;8.968;2022-07-29T01:12:34;18.00;99.90
6822;DHT22;3449;48.728;8.968;2022-07-29T01:15:04;18.00;99.90
6822;DHT22;3449;48.728;8.968;2022-07-29T01:17:36;17.90;99.90
6822;DHT22;3449;48.728;8.968;2022-07-29T01:20:10;17.90;99.90
6822;DHT22;3449;48.728;8.968;2022-07-29T01:22:53;17.90;99.90
6822;DHT22;3449;48.728;8.968;2022-07-29T01:25:49;17.90;99.90
6822;DHT22;3449;48.728;8.968;2022-07-29T01:28:52;17.80;99.90
6822;DHT22;3449;48.728;8.968;2022-07-29T01:31:31;17.80;99.90
6822;DHT22;3449;48.728;8.968;2022-07-29T01:34:05;17.80;99.90
6822;DHT22;3449;48.728;8.968;2022-07-29T01:36:35;17.80;99.90
6822;DHT22;3449;48.728;8.968;2022-07-29T01:39:07;17.70;99.90
6822;DHT22;3449;48.728;8.968;2022-07-29T01:41:37;17.70;99.90
6822;DHT22;3449;48.728;8.968;2022-07-29T01:44:13;17.70;99.90
6822;DHT22;3449;48.728;8.968;2022-07-29T01:46:46;17.70;99.90
6822;DHT22;3449;48.728;8.968;2022-07-29T01:49:20;17.60;99.90
6822;DHT22;3449;48.728;8.968;2022-07-29T01:51:50;17.60;99.90
6822;DHT22;3449;48.728;8.968;2022-07-29T01:54:21;17.60;99.90
6822;DHT22;3449;48.728;8.968;2022-07-29T01:56:51;17.60;99.90
6822;DHT22;3449;48.728;8.968;2022-07-29T01:59:20;17.60;99.90
6822;DHT22;3449;48.728;8.968;2022-07-29T02:01:50;17.60;99.90
6822;DHT22;3449;48.728;8.968;2022-07-29T02:04:20;17.60;99.90
6822;DHT22;3449;48.728;8.968;2022-07-29T02:06:50;17.60;99.90
6822;DHT22;3449;48.728;8.968;2022-07-29T02:09:19;17.60;99.90
6822;DHT22;3449;48.728;8.968;2022-07-29T02:11:50;17.50;99.90
6822;DHT22;3449;48.728;8.968;2022-07-29T02:14:21;17.50;99.90
6822;DHT22;3449;48.728;8.968;2022-07-29T02:16:51;17.50;99.90
6822;DHT22;3449;48.728;8.968;2022-07-29T02:19:22;17.50;99.90
6822;DHT22;3449;48.728;8.968;2022-07-29T02:21:51;17.50;99.90
6822;DHT22;3449;48.728;8.968;2022-07-29T02:24:21;17.50;99.90
6822;DHT22;3449;48.728;8.968;2022-07-29T02:26:50;17.50;99.90
6822;DHT22;3449;48.728;8.968;2022-07-29T02:29:22;17.50;99.90
6822;DHT22;3449;48.728;8.968;2022-07-29T02:31:50;17.50;99.90
6822;DHT22;3449;48.728;8.968;2022-07-29T02:34:19;17.40;99.90
6822;DHT22;3449;48.728;8.968;2022-07-29T02:36:48;17.40;99.90
6822;DHT22;3449;48.728;8.968;2022-07-29T02:39:16;17.40;99.90
6822;DHT22;3449;48.728;8.968;2022-07-29T02:41:45;17.40;99.90
6822;DHT22;3449;48.728;8.968;2022-07-29T02:44:16;17.40;99.90
6822;DHT22;3449;48.728;8.968;2022-07-29T02:46:48;17.40;99.90
6822;DHT22;3449;48.728;8.968;2022-07-29T02:49:21;17.40;99.90
6822;DHT22;3449;48.728;8.968;2022-07-29T02:51:55;17.30;99.90
6822;DHT22;3449;48.728;8.968;2022-07-29T02:54:31;17.30;99.90
6822;DHT22;3449;48.728;8.968;2022-07-29T02:57:03;17.30;99.90
6822;DHT22;3449;48.728;8.968;2022-07-29T02:59:34;17.40;99.90
6822;DHT22;3449;48.728;8.968;2022-07-29T03:02:05;17.40;99.90
6822;DHT22;3449;48.728;8.968;2022-07-29T03:04:34;17.40;99.90
6822;DHT22;3449;48.728;8.968;2022-07-29T03:07:02;17.40;99.90
6822;DHT22;3449;48.728;8.968;2022-07-29T03:09:30;17.40;99.90
6822;DHT22;3449;48.728;8.968;2022-07-29T03:11:58;17.30;99.90
6822;DHT22;3449;48.728;8.968;2022-07-29T03:14:25;17.30;99.90
6822;DHT22;3449;48.728;8.968;2022-07-29T03:16:53;17.30;99.90
6822;DHT22;3449;48.728;8.968;2022-07-29T03:19:21;17.30;99.90
6822;DHT22;3449;48.728;8.968;2022-07-29T03:21:49;17.30;99.90
6822;DHT22;3449;48.728;8.968;2022-07-29T03:24:29;17.30;99.90
6822;DHT22;3449;48.728;8.968;2022-07-29T03:26:57;17.30;99.90
6822;DHT22;3449;48.728;8.968;2022-07-29T03:29:25;17.30;99.90
6822;DHT22;3449;48.728;8.968;2022-07-29T03:31:52;17.20;99.90
6822;DHT22;3449;48.728;8.968;2022-07-29T03:34:20;17.20;99.90
6822;DHT22;3449;48.728;8.968;2022-07-29T03:36:47;17.20;99.90
6822;DHT22;3449;48.728;8.968;2022-07-29T03:39:17;17.20;99.90
6822;DHT22;3449;48.728;8.968;2022-07-29T03:41:46;17.20;99.90
6822;DHT22;3449;48.728;8.968;2022-07-29T03:44:15;17.20;99.90
6822;DHT22;3449;48.728;8.968;2022-07-29T03:46:43;17.20;99.90
6822;DHT22;3449;48.728;8.968;2022-07-29T03:49:11;17.30;99.90
6822;DHT22;3449;48.728;8.968;2022-07-29T03:51:40;17.30;99.90
6822;DHT22;3449;48.728;8.968;2022-07-29T03:54:07;17.30;99.90
6822;DHT22;3449;48.728;8.968;2022-07-29T03:56:38;17.30;99.90
6822;DHT22;3449;48.728;8.968;2022-07-29T03:59:06;17.30;99.90
6822;DHT22;3449;48.728;8.968;2022-07-29T04:01:34;17.30;99.90
6822;DHT22;3449;48.728;8.968;2022-07-29T04:04:01;17.30;99.90
6822;DHT22;3449;48.728;8.968;2022-07-29T04:06:31;17.30;99.90
6822;DHT22;3449;48.728;8.968;2022-07-29T04:09:05;17.30;99.90
6822;DHT22;3449;48.728;8.968;2022-07-29T04:11:32;17.30;99.90
6822;DHT22;3449;48.728;8.968;2022-07-29T04:13:59;17.20;99.90
6822;DHT22;3449;48.728;8.968;2022-07-29T04:16:26;17.30;99.90
6822;DHT22;3449;48.728;8.968;2022-07-29T04:18:53;17.30;99.90
6822;DHT22;3449;48.728;8.968;2022-07-29T04:21:19;17.30;99.90
6822;DHT22;3449;48.728;8.968;2022-07-29T04:23:46;17.30;99.90
6822;DHT22;3449;48.728;8.968;2022-07-29T04:26:17;17.20;99.90
6822;DHT22;3449;48.728;8.968;2022-07-29T04:28:44;17.20;99.90
6822;DHT22;3449;48.728;8.968;2022-07-29T04:31:12;17.20;99.90
6822;DHT22;3449;48.728;8.968;2022-07-29T04:33:39;17.20;99.90
6822;DHT22;3449;48.728;8.968;2022-07-29T04:36:06;17.20;99.90
6822;DHT22;3449;48.728;8.968;2022-07-29T04:38:33;17.20;99.90
6822;DHT22;3449;48.728;8.968;2022-07-29T04:41:00;17.20;99.90
6822;DHT22;3449;48.728;8.968;2022-07-29T04:43:29;17.30;99.90
6822;DHT22;3449;48.728;8.968;2022-07-29T04:45:55;17.40;99.90
6822;DHT22;3449;48.728;8.968;2022-07-29T04:48:22;17.40;99.90
6822;DHT22;3449;48.728;8.968;2022-07-29T04:50:49;17.50;99.90
6822;DHT22;3449;48.728;8.968;2022-07-29T04:53:16;17.50;99.90
6822;DHT22;3449;48.728;8.968;2022-07-29T04:55:44;17.60;99.90
6822;DHT22;3449;48.728;8.968;2022-07-29T04:58:11;17.60;99.90
6822;DHT22;3449;48.728;8.968;2022-07-29T05:00:40;17.70;99.90
6822;DHT22;3449;48.728;8.968;2022-07-29T05:03:07;17.80;99.90
6822;DHT22;3449;48.728;8.968;2022-07-29T05:05:34;17.80;99.90
6822;DHT22;3449;48.728;8.968;2022-07-29T05:08:01;17.90;99.90
6822;DHT22;3449;48.728;8.968;2022-07-29T05:10:28;17.90;99.90
6822;DHT22;3449;48.728;8.968;2022-07-29T05:12:55;18.00;99.90
6822;DHT22;3449;48.728;8.968;2022-07-29T05:15:22;18.00;99.90
6822;DHT22;3449;48.728;8.968;2022-07-29T05:17:50;18.10;99.90
6822;DHT22;3449;48.728;8.968;2022-07-29T05:20:17;18.10;99.90
6822;DHT22;3449;48.728;8.968;2022-07-29T05:22:44;18.10;99.90
6822;DHT22;3449;48.728;8.968;2022-07-29T05:25:11;18.10;99.90
6822;DHT22;3449;48.728;8.968;2022-07-29T05:27:38;18.20;99.90
6822;DHT22;3449;48.728;8.968;2022-07-29T05:30:06;18.40;99.90
6822;DHT22;3449;48.728;8.968;2022-07-29T05:32:33;18.40;99.90
6822;DHT22;3449;48.728;8.968;2022-07-29T05:35:01;18.50;99.90
6822;DHT22;3449;48.728;8.968;2022-07-29T05:37:28;18.60;99.90
6822;DHT22;3449;48.728;8.968;2022-07-29T05:39:55;18.70;99.90
6822;DHT22;3449;48.728;8.968;2022-07-29T05:42:22;18.70;99.90
6822;DHT22;3449;48.728;8.968;2022-07-29T05:44:49;18.70;99.90
6822;DHT22;3449;48.728;8.968;2022-07-29T05:47:16;18.70;99.90
6822;DHT22;3449;48.728;8.968;2022-07-29T05:49:43;18.80;99.90
6822;DHT22;3449;48.728;8.968;2022-07-29T05:52:13;18.80;99.90
6822;DHT22;3449;48.728;8.968;2022-07-29T05:54:40;18.90;99.90
6822;DHT22;3449;48.728;8.968;2022-07-29T05:57:07;18.90;99.90
6822;DHT22;3449;48.728;8.968;2022-07-29T05:59:35;19.10;99.90
6822;DHT22;3449;48.728;8.968;2022-07-29T06:02:03;19.20;99.90
6822;DHT22;3449;48.728;8.968;2022-07-29T06:04:30;19.40;99.90
6822;DHT22;3449;48.728;8.968;2022-07-29T06:06:57;19.60;99.90
6822;DHT22;3449;48.728;8.968;2022-07-29T06:09:25;19.80;99.90
6822;DHT22;3449;48.728;8.968;2022-07-29T06:11:52;19.90;99.90
6822;DHT22;3449;48.728;8.968;2022-07-29T06:14:19;20.00;99.90
6822;DHT22;3449;48.728;8.968;2022-07-29T06:16:46;20.30;99.90
6822;DHT22;3449;48.728;8.968;2022-07-29T06:19:13;20.40;99.90
6822;DHT22;3449;48.728;8.968;2022-07-29T06:21:41;20.60;99.90
6822;DHT22;3449;48.728;8.968;2022-07-29T06:24:10;20.60;99.90
6822;DHT22;3449;48.728;8.968;2022-07-29T06:26:39;20.60;99.90
6822;DHT22;3449;48.728;8.968;2022-07-29T06:29:06;20.60;99.90
6822;DHT22;3449;48.728;8.968;2022-07-29T06:31:33;20.60;99.90
6822;DHT22;3449;48.728;8.968;2022-07-29T06:34:00;20.80;99.90
6822;DHT22;3449;48.728;8.968;2022-07-29T06:36:27;21.00;99.90
6822;DHT22;3449;48.728;8.968;2022-07-29T06:38:54;21.20;99.90
6822;DHT22;3449;48.728;8.968;2022-07-29T06:41:21;21.30;99.90
6822;DHT22;3449;48.728;8.968;2022-07-29T06:43:50;21.30;99.90
6822;DHT22;3449;48.728;8.968;2022-07-29T06:46:18;21.40;99.90
6822;DHT22;3449;48.728;8.968;2022-07-29T06:48:46;21.60;99.90
6822;DHT22;3449;48.728;8.968;2022-07-29T06:51:14;21.70;99.90
6822;DHT22;3449;48.728;8.968;2022-07-29T06:53:42;21.90;99.90
6822;DHT22;3449;48.728;8.968;2022-07-29T06:56:08;22.10;99.90
6822;DHT22;3449;48.728;8.968;2022-07-29T06:58:36;22.40;99.90
6822;DHT22;3449;48.728;8.968;2022-07-29T07:01:05;22.40;99.90
6822;DHT22;3449;48.728;8.968;2022-07-29T07:03:33;22.60;99.90
6822;DHT22;3449;48.728;8.968;2022-07-29T07:06:00;22.70;99.90
6822;DHT22;3449;48.728;8.968;2022-07-29T07:08:27;22.70;99.90
6822;DHT22;3449;48.728;8.968;2022-07-29T07:10:54;22.80;99.90
6822;DHT22;3449;48.728;8.968;2022-07-29T07:13:22;22.90;99.90
6822;DHT22;3449;48.728;8.968;2022-07-29T07:15:49;23.00;99.90
6822;DHT22;3449;48.728;8.968;2022-07-29T07:18:18;22.80;99.90
6822;DHT22;3449;48.728;8.968;2022-07-29T07:20:45;22.70;99.90
6822;DHT22;3449;48.728;8.968;2022-07-29T07:23:13;22.80;99.90
6822;DHT22;3449;48.728;8.968;2022-07-29T07:25:40;23.10;99.90
6822;DHT22;3449;48.728;8.968;2022-07-29T07:28:07;23.30;99.90
6822;DHT22;3449;48.728;8.968;2022-07-29T07:30:34;23.70;99.90
6822;DHT22;3449;48.728;8.968;2022-07-29T07:33:02;24.00;99.90
6822;DHT22;3449;48.728;8.968;2022-07-29T07:35:30;24.20;99.90
6822;DHT22;3449;48.728;8.968;2022-07-29T07:37:57;24.60;99.90
6822;DHT22;3449;48.728;8.968;2022-07-29T07:40:24;24.80;99.90
6822;DHT22;3449;48.728;8.968;2022-07-29T07:42:51;24.80;99.90
6822;DHT22;3449;48.728;8.968;2022-07-29T07:45:18;24.20;99.90
6822;DHT22;3449;48.728;8.968;2022-07-29T07:47:45;24.30;99.90
6822;DHT22;3449;48.728;8.968;2022-07-29T07:50:12;24.20;99.90
6822;DHT22;3449;48.728;8.968;2022-07-29T07:52:48;24.30;99.90
6822;DHT22;3449;48.728;8.968;2022-07-29T07:55:16;24.30;99.90
6822;DHT22;3449;48.728;8.968;2022-07-29T07:57:43;24.50;99.90
6822;DHT22;3449;48.728;8.968;2022-07-29T08:00:11;24.90;99.90
6822;DHT22;3449;48.728;8.968;2022-07-29T08:02:38;25.20;99.90
6822;DHT22;3449;48.728;8.968;2022-07-29T08:05:06;25.20;99.90
6822;DHT22;3449;48.728;8.968;2022-07-29T08:07:33;25.00;99.90
6822;DHT22;3449;48.728;8.968;2022-07-29T08:10:03;25.00;99.90
6822;DHT22;3449;48.728;8.968;2022-07-29T08:12:30;25.30;99.90
6822;DHT22;3449;48.728;8.968;2022-07-29T08:14:56;25.70;99.90
6822;DHT22;3449;48.728;8.968;2022-07-29T08:17:23;25.70;99.90
6822;DHT22;3449;48.728;8.968;2022-07-29T08:19:52;25.60;99.90
6822;DHT22;3449;48.728;8.968;2022-07-29T08:22:19;26.00;99.90
6822;DHT22;3449;48.728;8.968;2022-07-29T08:24:46;26.20;99.90
6822;DHT22;3449;48.728;8.968;2022-07-29T08:27:19;26.30;99.90
6822;DHT22;3449;48.728;8.968;2022-07-29T08:29:47;26.60;99.90
6822;DHT22;3449;48.728;8.968;2022-07-29T08:32:14;26.60;99.90
6822;DHT22;3449;48.728;8.968;2022-07-29T08:34:41;26.70;99.90
6822;DHT22;3449;48.728;8.968;2022-07-29T08:37:10;26.70;99.90
6822;DHT22;3449;48.728;8.968;2022-07-29T08:39:37;26.30;99.90
6822;DHT22;3449;48.728;8.968;2022-07-29T08:42:04;26.40;99.90
6822;DHT22;3449;48.728;8.968;2022-07-29T08:44:33;26.20;99.90
6822;DHT22;3449;48.728;8.968;2022-07-29T08:47:01;26.30;99.90
6822;DHT22;3449;48.728;8.968;2022-07-29T08:49:28;26.80;99.90
6822;DHT22;3449;48.728;8.968;2022-07-29T08:51:56;27.10;99.90
6822;DHT22;3449;48.728;8.968;2022-07-29T08:54:24;27.50;99.90
6822;DHT22;3449;48.728;8.968;2022-07-29T08:56:51;27.60;99.90
6822;DHT22;3449;48.728;8.968;2022-07-29T08:59:20;27.70;99.90
6822;DHT22;3449;48.728;8.968;2022-07-29T09:01:52;28.00;99.90
6822;DHT22;3449;48.728;8.968;2022-07-29T09:04:20;28.10;99.90
6822;DHT22;3449;48.728;8.968;2022-07-29T09:06:50;28.40;99.90
6822;DHT22;3449;48.728;8.968;2022-07-29T09:09:18;28.60;99.90
6822;DHT22;3449;48.728;8.968;2022-07-29T09:11:45;28.60;99.90
6822;DHT22;3449;48.728;8.968;2022-07-29T09:14:13;28.50;99.90
6822;DHT22;3449;48.728;8.968;2022-07-29T09:16:45;27.60;99.90
6822;DHT22;3449;48.728;8.968;2022-07-29T09:19:24;27.40;99.90
6822;DHT22;3449;48.728;8.968;2022-07-29T09:21:53;27.70;99.90
6822;DHT22;3449;48.728;8.968;2022-07-29T09:24:36;27.60;99.90
6822;DHT22;3449;48.728;8.968;2022-07-29T09:27:08;28.10;99.90
6822;DHT22;3449;48.728;8.968;2022-07-29T09:29:36;28.70;99.90
6822;DHT22;3449;48.728;8.968;2022-07-29T09:32:08;29.30;99.90
6822;DHT22;3449;48.728;8.968;2022-07-29T09:34:37;28.90;99.90
6822;DHT22;3449;48.728;8.968;2022-07-29T09:37:04;28.20;99.90
6822;DHT22;3449;48.728;8.968;2022-07-29T09:39:33;28.10;99.90
6822;DHT22;3449;48.728;8.968;2022-07-29T09:42:02;28.30;99.90
6822;DHT22;3449;48.728;8.968;2022-07-29T09:44:41;28.70;99.90
6822;DHT22;3449;48.728;8.968;2022-07-29T09:47:09;28.30;99.90
6822;DHT22;3449;48.728;8.968;2022-07-29T09:49:52;27.70;99.90
6822;DHT22;3449;48.728;8.968;2022-07-29T09:52:20;27.70;99.90
6822;DHT22;3449;48.728;8.968;2022-07-29T09:54:47;28.20;99.90
6822;DHT22;3449;48.728;8.968;2022-07-29T09:57:26;28.00;99.90
6822;DHT22;3449;48.728;8.968;2022-07-29T09:59:58;28.30;99.90
6822;DHT22;3449;48.728;8.968;2022-07-29T10:02:30;28.40;99.90
6822;DHT22;3449;48.728;8.968;2022-07-29T10:04:59;28.20;99.90
6822;DHT22;3449;48.728;8.968;2022-07-29T10:07:27;27.70;99.90
6822;DHT22;3449;48.728;8.968;2022-07-29T10:10:09;27.20;99.90
6822;DHT22;3449;48.728;8.968;2022-07-29T10:12:48;26.60;99.90
6822;DHT22;3449;48.728;8.968;2022-07-29T10:15:15;26.00;99.90
6822;DHT22;3449;48.728;8.968;2022-07-29T10:17:42;25.70;99.90
6822;DHT22;3449;48.728;8.968;2022-07-29T10:20:11;25.20;99.90
6822;DHT22;3449;48.728;8.968;2022-07-29T10:22:39;24.80;99.90
6822;DHT22;3449;48.728;8.968;2022-07-29T10:25:07;24.40;99.90
6822;DHT22;3449;48.728;8.968;2022-07-29T10:27:35;23.60;99.90
6822;DHT22;3449;48.728;8.968;2022-07-29T10:30:03;22.90;99.90
6822;DHT22;3449;48.728;8.968;2022-07-29T10:32:54;22.20;99.90
6822;DHT22;3449;48.728;8.968;2022-07-29T10:35:34;21.50;99.90
6822;DHT22;3449;48.728;8.968;2022-07-29T10:38:15;20.80;99.90
6822;DHT22;3449;48.728;8.968;2022-07-29T10:40:52;20.30;99.90
6822;DHT22;3449;48.728;8.968;2022-07-29T10:43:51;19.70;99.90
6822;DHT22;3449;48.728;8.968;2022-07-29T10:46:19;19.50;99.90
6822;DHT22;3449;48.728;8.968;2022-07-29T10:49:07;19.60;99.90
6822;DHT22;3449;48.728;8.968;2022-07-29T10:51:55;19.60;99.90
6822;DHT22;3449;48.728;8.968;2022-07-29T10:54:47;19.70;99.90
6822;DHT22;3449;48.728;8.968;2022-07-29T10:57:24;19.70;99.90
6822;DHT22;3449;48.728;8.968;2022-07-29T11:00:25;19.70;99.90
6822;DHT22;3449;48.728;8.968;2022-07-29T11:02:53;19.80;99.90
6822;DHT22;3449;48.728;8.968;2022-07-29T11:05:22;19.80;99.90
6822;DHT22;3449;48.728;8.968;2022-07-29T11:14:03;19.80;99.90
6822;DHT22;3449;48.728;8.968;2022-07-29T11:16:58;20.00;99.90
6822;DHT22;3449;48.728;8.968;2022-07-29T11:19:25;20.00;99.90
6822;DHT22;3449;48.728;8.968;2022-07-29T11:21:52;20.00;99.90
6822;DHT22;3449;48.728;8.968;2022-07-29T11:24:21;19.90;99.90
6822;DHT22;3449;48.728;8.968;2022-07-29T11:27:08;19.90;99.90
6822;DHT22;3449;48.728;8.968;2022-07-29T11:29:39;19.90;99.90
6822;DHT22;3449;48.728;8.968;2022-07-29T11:32:11;20.10;99.90
6822;DHT22;3449;48.728;8.968;2022-07-29T11:34:38;20.50;99.90
6822;DHT22;3449;48.728;8.968;2022-07-29T11:37:30;21.10;99.90
6822;DHT22;3449;48.728;8.968;2022-07-29T11:40:16;21.80;99.90
6822;DHT22;3449;48.728;8.968;2022-07-29T11:42:48;22.40;99.90
6822;DHT22;3449;48.728;8.968;2022-07-29T11:45:21;22.20;99.90
6822;DHT22;3449;48.728;8.968;2022-07-29T11:47:53;21.90;99.90
6822;DHT22;3449;48.728;8.968;2022-07-29T11:50:35;21.60;99.90
6822;DHT22;3449;48.728;8.968;2022-07-29T11:53:03;21.50;99.90
6822;DHT22;3449;48.728;8.968;2022-07-29T11:55:37;21.60;99.90
6822;DHT22;3449;48.728;8.968;2022-07-29T11:58:05;21.70;99.90
6822;DHT22;3449;48.728;8.968;2022-07-29T12:00:35;21.70;99.90
6822;DHT22;3449;48.728;8.968;2022-07-29T12:03:05;21.70;99.90
6822;DHT22;3449;48.728;8.968;2022-07-29T12:05:36;21.60;99.90
6822;DHT22;3449;48.728;8.968;2022-07-29T12:08:12;21.40;99.90
6822;DHT22;3449;48.728;8.968;2022-07-29T12:10:39;21.10;99.90
6822;DHT22;3449;48.728;8.968;2022-07-29T12:13:07;21.10;99.90
6822;DHT22;3449;48.728;8.968;2022-07-29T12:15:36;21.00;99.90
6822;DHT22;3449;48.728;8.968;2022-07-29T12:18:16;20.90;99.90
6822;DHT22;3449;48.728;8.968;2022-07-29T12:20:46;21.00;99.90
6822;DHT22;3449;48.728;8.968;2022-07-29T12:23:14;21.00;99.90
6822;DHT22;3449;48.728;8.968;2022-07-29T12:25:43;21.00;99.90
6822;DHT22;3449;48.728;8.968;2022-07-29T12:28:13;21.00;99.90
6822;DHT22;3449;48.728;8.968;2022-07-29T12:30:45;21.00;99.90
6822;DHT22;3449;48.728;8.968;2022-07-29T12:33:17;21.10;99.90
6822;DHT22;3449;48.728;8.968;2022-07-29T12:35:46;21.00;99.90
6822;DHT22;3449;48.728;8.968;2022-07-29T12:38:14;21.00;99.90
6822;DHT22;3449;48.728;8.968;2022-07-29T12:40:42;20.90;99.90
6822;DHT22;3449;48.728;8.968;2022-07-29T12:43:12;21.00;99.90
6822;DHT22;3449;48.728;8.968;2022-07-29T12:45:41;21.00;99.90
6822;DHT22;3449;48.728;8.968;2022-07-29T12:48:09;21.00;99.90
6822;DHT22;3449;48.728;8.968;2022-07-29T12:50:51;20.90;99.90
6822;DHT22;3449;48.728;8.968;2022-07-29T12:53:19;20.90;99.90
6822;DHT22;3449;48.728;8.968;2022-07-29T12:55:48;20.90;99.90
6822;DHT22;3449;48.728;8.968;2022-07-29T12:58:31;20.80;99.90
6822;DHT22;3449;48.728;8.968;2022-07-29T13:01:04;20.70;99.90
6822;DHT22;3449;48.728;8.968;2022-07-29T13:03:44;20.60;99.90
6822;DHT22;3449;48.728;8.968;2022-07-29T13:06:33;20.50;99.90
6822;DHT22;3449;48.728;8.968;2022-07-29T13:09:03;20.40;99.90
6822;DHT22;3449;48.728;8.968;2022-07-29T13:11:31;20.30;99.90
6822;DHT22;3449;48.728;8.968;2022-07-29T13:13:58;20.30;99.90
6822;DHT22;3449;48.728;8.968;2022-07-29T13:16:25;20.20;99.90
6822;DHT22;3449;48.728;8.968;2022-07-29T13:19:06;20.20;99.90
6822;DHT22;3449;48.728;8.968;2022-07-29T13:21:33;20.00;99.90
6822;DHT22;3449;48.728;8.968;2022-07-29T13:24:00;20.00;99.90
6822;DHT22;3449;48.728;8.968;2022-07-29T13:26:27;20.10;99.90
6822;DHT22;3449;48.728;8.968;2022-07-29T13:28:54;20.30;99.90
6822;DHT22;3449;48.728;8.968;2022-07-29T13:31:21;20.60;99.90
6822;DHT22;3449;48.728;8.968;2022-07-29T13:33:48;21.00;99.90
6822;DHT22;3449;48.728;8.968;2022-07-29T13:36:17;21.40;99.90
6822;DHT22;3449;48.728;8.968;2022-07-29T13:38:44;21.90;99.90
6822;DHT22;3449;48.728;8.968;2022-07-29T13:41:11;22.00;99.90
6822;DHT22;3449;48.728;8.968;2022-07-29T13:43:38;22.30;99.90
6822;DHT22;3449;48.728;8.968;2022-07-29T13:46:05;22.40;99.90
6822;DHT22;3449;48.728;8.968;2022-07-29T13:48:32;22.80;99.90
6822;DHT22;3449;48.728;8.968;2022-07-29T13:50:59;22.90;99.90
6822;DHT22;3449;48.728;8.968;2022-07-29T13:53:29;22.80;99.90
6822;DHT22;3449;48.728;8.968;2022-07-29T13:55:56;22.70;99.90
6822;DHT22;3449;48.728;8.968;2022-07-29T13:58:23;22.70;99.90
6822;DHT22;3449;48.728;8.968;2022-07-29T14:00:50;22.70;99.90
6822;DHT22;3449;48.728;8.968;2022-07-29T14:03:17;22.60;99.90
6822;DHT22;3449;48.728;8.968;2022-07-29T14:05:45;22.40;99.90
6822;DHT22;3449;48.728;8.968;2022-07-29T14:08:12;22.30;99.90
6822;DHT22;3449;48.728;8.968;2022-07-29T14:10:40;22.60;99.90
6822;DHT22;3449;48.728;8.968;2022-07-29T14:13:07;22.60;99.90
6822;DHT22;3449;48.728;8.968;2022-07-29T14:15:34;22.90;99.90
6822;DHT22;3449;48.728;8.968;2022-07-29T14:18:01;22.90;99.90
6822;DHT22;3449;48.728;8.968;2022-07-29T14:20:28;22.80;99.90
6822;DHT22;3449;48.728;8.968;2022-07-29T14:22:56;23.00;99.90
6822;DHT22;3449;48.728;8.968;2022-07-29T14:25:23;23.10;99.90
6822;DHT22;3449;48.728;8.968;2022-07-29T14:27:51;23.00;99.90
6822;DHT22;3449;48.728;8.968;2022-07-29T14:30:19;23.10;99.90
6822;DHT22;3449;48.728;8.968;2022-07-29T14:32:47;23.10;99.90
6822;DHT22;3449;48.728;8.968;2022-07-29T14:35:14;23.10;99.90
6822;DHT22;3449;48.728;8.968;2022-07-29T14:37:41;23.30;99.90
6822;DHT22;3449;48.728;8.968;2022-07-29T14:40:09;23.30;99.90
6822;DHT22;3449;48.728;8.968;2022-07-29T14:42:37;23.30;99.90
6822;DHT22;3449;48.728;8.968;2022-07-29T14:45:08;23.10;99.90
6822;DHT22;3449;48.728;8.968;2022-07-29T14:47:35;23.20;99.90
6822;DHT22;3449;48.728;8.968;2022-07-29T14:50:03;23.10;99.90
6822;DHT22;3449;48.728;8.968;2022-07-29T14:52:30;23.20;99.90
6822;DHT22;3449;48.728;8.968;2022-07-29T14:54:57;23.20;99.90
6822;DHT22;3449;48.728;8.968;2022-07-29T14:57:25;23.20;99.90
6822;DHT22;3449;48.728;8.968;2022-07-29T14:59:51;23.30;99.90
6822;DHT22;3449;48.728;8.968;2022-07-29T15:02:20;23.40;99.90
6822;DHT22;3449;48.728;8.968;2022-07-29T15:04:47;23.40;99.90
6822;DHT22;3449;48.728;8.968;2022-07-29T15:07:14;23.50;99.90
6822;DHT22;3449;48.728;8.968;2022-07-29T15:09:41;23.50;99.90
6822;DHT22;3449;48.728;8.968;2022-07-29T15:12:10;23.70;99.90
6822;DHT22;3449;48.728;8.968;2022-07-29T15:14:37;23.70;99.90
6822;DHT22;3449;48.728;8.968;2022-07-29T15:17:04;23.70;99.90
6822;DHT22;3449;48.728;8.968;2022-07-29T15:19:33;23.60;99.90
6822;DHT22;3449;48.728;8.968;2022-07-29T15:21:59;23.60;99.90
6822;DHT22;3449;48.728;8.968;2022-07-29T15:24:26;23.70;99.90
6822;DHT22;3449;48.728;8.968;2022-07-29T15:26:53;23.80;99.90
6822;DHT22;3449;48.728;8.968;2022-07-29T15:29:20;23.70;99.90
6822;DHT22;3449;48.728;8.968;2022-07-29T15:31:47;23.60;99.90
6822;DHT22;3449;48.728;8.968;2022-07-29T15:34:14;23.50;99.90
6822;DHT22;3449;48.728;8.968;2022-07-29T15:36:43;23.50;99.90
6822;DHT22;3449;48.728;8.968;2022-07-29T15:39:10;23.60;99.90
6822;DHT22;3449;48.728;8.968;2022-07-29T15:41:37;23.70;99.90
6822;DHT22;3449;48.728;8.968;2022-07-29T15:44:04;23.60;99.90
6822;DHT22;3449;48.728;8.968;2022-07-29T15:46:31;23.50;99.90
6822;DHT22;3449;48.728;8.968;2022-07-29T15:49:15;23.50;99.90
6822;DHT22;3449;48.728;8.968;2022-07-29T15:51:43;23.40;99.90
6822;DHT22;3449;48.728;8.968;2022-07-29T15:54:10;23.40;99.90
6822;DHT22;3449;48.728;8.968;2022-07-29T15:56:37;23.40;99.90
6822;DHT22;3449;48.728;8.968;2022-07-29T15:59:04;23.30;99.90
6822;DHT22;3449;48.728;8.968;2022-07-29T16:01:31;23.30;99.90
6822;DHT22;3449;48.728;8.968;2022-07-29T16:03:58;23.30;99.90
6822;DHT22;3449;48.728;8.968;2022-07-29T16:06:25;23.20;99.90
6822;DHT22;3449;48.728;8.968;2022-07-29T16:08:53;23.30;99.90
6822;DHT22;3449;48.728;8.968;2022-07-29T16:11:21;23.30;99.90
6822;DHT22;3449;48.728;8.968;2022-07-29T16:13:48;23.30;99.90
6822;DHT22;3449;48.728;8.968;2022-07-29T16:16:15;23.30;99.90
6822;DHT22;3449;48.728;8.968;2022-07-29T16:18:43;23.20;99.90
6822;DHT22;3449;48.728;8.968;2022-07-29T16:21:10;23.20;99.90
6822;DHT22;3449;48.728;8.968;2022-07-29T16:23:37;23.40;99.90